Port Burwell, Canada
Current Conditions -  °F | °C
As of 2:00 PM on Saturday 27 Dec 2014 (Local Time) from CYXU Reporting Station
Overcast Overcast  
Wind Chill: 39°   Ceiling: 1800
Heat Index: 46°   Visibility: 15mi
Dew Point: 37°   Wind: 18mph
Humidity: 71%   Direction: 200°SSW
Pressure: 29.95"   Gusts: NA
Location:  42.65°N, 80.82°W
Report Text: CYXU 271900Z 20016KT 15SM OVC018 08/03 A2995 RMK SC8 SLP149
Loading
Personal Weather Stations






























Interactive Weather Map New forecast layout! Learn more

10-Day Weather Forecast

Advertisements
Track Severe Weather on mobile